createdAt,value
2022-08-27T00:00:52.204Z,6.55
2022-08-27T00:03:20.891Z,6.63
2022-08-27T00:05:50.986Z,6.80
2022-08-27T00:08:19.641Z,7.47
2022-08-27T00:10:48.267Z,6.88
2022-08-27T00:13:17.218Z,6.25
2022-08-27T00:15:46.110Z,6.65
2022-08-27T00:18:14.875Z,6.72
2022-08-27T00:20:44.363Z,6.07
2022-08-27T00:23:14.348Z,6.40
2022-08-27T00:25:43.011Z,6.72
2022-08-27T00:28:11.781Z,6.45
2022-08-27T00:30:40.588Z,5.68
2022-08-27T00:33:09.216Z,6.60
2022-08-27T00:35:38.971Z,6.97
2022-08-27T00:38:08.228Z,6.30
2022-08-27T00:40:38.630Z,6.95
2022-08-27T00:43:07.438Z,6.50
2022-08-27T00:45:44.633Z,6.88
2022-08-27T00:48:18.346Z,6.47
2022-08-27T00:50:54.403Z,6.15
2022-08-27T00:53:33.348Z,6.18
2022-08-27T00:56:11.155Z,5.90
2022-08-27T00:58:44.439Z,5.20
2022-08-27T01:01:17.476Z,5.78
2022-08-27T01:03:52.564Z,5.20
2022-08-27T01:06:24.599Z,5.18
2022-08-27T01:09:00.193Z,5.43
2022-08-27T01:11:31.374Z,5.13
2022-08-27T01:14:01.399Z,5.45
2022-08-27T01:16:39.595Z,5.32
2022-08-27T01:19:15.942Z,4.85
2022-08-27T01:21:55.053Z,5.45
2022-08-27T01:24:37.747Z,5.40
2022-08-27T01:27:13.419Z,5.18
2022-08-27T01:29:44.035Z,5.50
2022-08-27T01:32:18.412Z,5.78
2022-08-27T01:34:47.901Z,5.60
2022-08-27T01:37:23.552Z,5.93
2022-08-27T01:39:55.703Z,5.68
2022-08-27T01:42:28.886Z,5.85
2022-08-27T01:45:02.398Z,5.90
2022-08-27T01:47:36.556Z,5.32
2022-08-27T01:50:09.963Z,4.70
2022-08-27T01:52:38.607Z,5.00
2022-08-27T01:55:14.002Z,5.13
2022-08-27T01:57:44.064Z,5.35
2022-08-27T02:00:18.120Z,5.03
2022-08-27T02:02:47.691Z,4.82
2022-08-27T02:05:17.708Z,4.78
2022-08-27T02:07:47.274Z,5.05
2022-08-27T02:10:23.149Z,4.30
2022-08-27T02:12:52.742Z,4.38
2022-08-27T02:15:24.235Z,4.90
2022-08-27T02:17:53.481Z,4.80
2022-08-27T02:20:24.380Z,4.63
2022-08-27T02:22:58.034Z,4.78
2022-08-27T02:25:29.083Z,4.25
2022-08-27T02:28:00.299Z,4.72
2022-08-27T02:30:32.226Z,4.72
2022-08-27T02:33:01.197Z,4.68
2022-08-27T02:35:32.817Z,4.57
2022-08-27T02:38:02.501Z,4.20
2022-08-27T02:40:32.900Z,4.40
2022-08-27T02:43:01.547Z,3.85
2022-08-27T02:45:30.262Z,4.13
2022-08-27T02:47:59.390Z,4.22
2022-08-27T02:50:28.030Z,4.35
2022-08-27T02:52:56.896Z,4.07
2022-08-27T02:55:25.612Z,3.95
2022-08-27T02:57:56.660Z,3.72
2022-08-27T03:00:27.563Z,3.90
2022-08-27T03:02:56.714Z,3.85
2022-08-27T03:05:26.659Z,4.55
2022-08-27T03:07:55.572Z,3.90
2022-08-27T03:10:24.561Z,4.25
2022-08-27T03:12:54.606Z,3.60
2022-08-27T03:15:23.602Z,4.10
2022-08-27T03:18:09.824Z,3.13
2022-08-27T03:20:44.718Z,3.85
2022-08-27T03:23:15.783Z,3.70
2022-08-27T03:25:47.429Z,4.15
2022-08-27T03:28:23.353Z,3.60
2022-08-27T03:30:55.317Z,3.65
2022-08-27T03:33:23.993Z,3.58
2022-08-27T03:35:53.339Z,3.85
2022-08-27T03:38:23.400Z,3.80
2022-08-27T03:40:52.988Z,3.25
2022-08-27T03:43:24.342Z,3.75
2022-08-27T03:46:01.006Z,3.53
2022-08-27T03:48:34.653Z,3.72
2022-08-27T03:51:08.075Z,3.42
2022-08-27T03:53:38.807Z,4.25
2022-08-27T03:56:08.592Z,3.78
2022-08-27T03:58:39.857Z,3.55
2022-08-27T04:01:09.786Z,3.53
2022-08-27T04:03:39.197Z,3.17
2022-08-27T04:06:08.663Z,3.40
2022-08-27T04:08:37.369Z,3.60
2022-08-27T04:11:07.901Z,3.70
2022-08-27T04:13:38.799Z,3.30
2022-08-27T04:16:10.633Z,3.00
2022-08-27T04:18:39.305Z,3.33
2022-08-27T04:21:14.320Z,3.13
2022-08-27T04:23:44.492Z,2.75
2022-08-27T04:26:14.844Z,3.15
2022-08-27T04:28:48.676Z,3.40
2022-08-27T04:31:18.189Z,3.55
2022-08-27T04:33:51.322Z,3.88
2022-08-27T04:36:21.597Z,4.00
2022-08-27T04:38:50.275Z,5.70
2022-08-27T04:41:22.390Z,5.97
2022-08-27T04:43:55.751Z,6.40
2022-08-27T04:46:27.396Z,5.55
2022-08-27T04:48:58.551Z,4.95
2022-08-27T04:51:29.080Z,5.00
2022-08-27T04:54:00.937Z,5.00
2022-08-27T04:56:31.102Z,5.15
2022-08-27T04:59:03.814Z,5.45
2022-08-27T05:01:33.630Z,5.38
2022-08-27T05:04:02.499Z,4.70
2022-08-27T05:06:32.070Z,5.50
2022-08-27T05:09:01.222Z,5.68
2022-08-27T05:11:34.308Z,5.53
2022-08-27T05:14:07.487Z,5.60
2022-08-27T05:16:37.051Z,7.65
2022-08-27T05:19:08.492Z,6.95
2022-08-27T05:21:40.913Z,7.13
2022-08-27T05:24:10.196Z,7.18
2022-08-27T05:26:39.010Z,5.25
2022-08-27T05:29:09.086Z,4.43
2022-08-27T05:31:38.009Z,4.22
2022-08-27T05:34:10.411Z,4.75
2022-08-27T05:36:48.141Z,4.75
2022-08-27T05:39:19.104Z,4.45
2022-08-27T05:41:47.738Z,4.18
2022-08-27T05:44:40.669Z,5.72
2022-08-27T05:47:06.498Z,5.88
2022-08-27T05:49:35.162Z,6.15
2022-08-27T05:52:04.517Z,6.05
2022-08-27T05:54:33.923Z,6.35
2022-08-27T05:57:02.678Z,6.45
2022-08-27T05:59:50.369Z,5.95
2022-08-27T06:02:19.120Z,6.00
2022-08-27T06:04:48.750Z,5.10
2022-08-27T06:07:17.805Z,5.22
2022-08-27T06:09:46.481Z,5.40
2022-08-27T06:12:15.114Z,4.60
2022-08-27T06:14:45.177Z,4.60
2022-08-27T06:17:13.984Z,4.55
2022-08-27T06:19:43.066Z,4.68
2022-08-27T06:22:11.689Z,4.25
2022-08-27T06:24:42.741Z,4.55
2022-08-27T06:27:16.200Z,3.83
2022-08-27T06:29:47.112Z,4.15
2022-08-27T06:32:16.488Z,3.40
2022-08-27T06:34:45.077Z,3.30
2022-08-27T06:37:13.968Z,3.78
2022-08-27T06:39:42.533Z,3.80
2022-08-27T06:42:13.983Z,3.53
2022-08-27T06:44:42.814Z,3.83
2022-08-27T06:47:13.138Z,3.38
2022-08-27T06:49:43.443Z,3.20
2022-08-27T06:52:15.574Z,3.72
2022-08-27T06:54:45.090Z,3.08
2022-08-27T06:57:13.769Z,3.38
2022-08-27T06:59:42.421Z,3.70
2022-08-27T07:02:12.467Z,4.20
2022-08-27T07:04:41.275Z,3.55
2022-08-27T07:07:13.781Z,3.28
2022-08-27T07:09:42.571Z,3.17
2022-08-27T07:12:11.253Z,3.25
2022-08-27T07:14:39.956Z,3.53
2022-08-27T07:17:25.416Z,3.75
2022-08-27T07:19:54.088Z,3.47
2022-08-27T07:22:22.691Z,3.38
2022-08-27T07:24:51.865Z,2.80
2022-08-27T07:27:21.472Z,3.35
2022-08-27T07:29:50.103Z,3.10
2022-08-27T07:32:18.752Z,3.20
2022-08-27T07:34:48.687Z,3.05
2022-08-27T07:37:17.297Z,3.38
2022-08-27T07:39:46.133Z,2.85
2022-08-27T07:42:28.575Z,3.35
2022-08-27T07:44:57.365Z,3.22
2022-08-27T07:47:26.126Z,3.47
2022-08-27T07:49:56.378Z,3.63
2022-08-27T07:52:26.690Z,3.00
2022-08-27T07:54:55.489Z,3.55
2022-08-27T07:57:24.181Z,3.80
2022-08-27T07:59:53.282Z,3.05
2022-08-27T08:02:22.013Z,3.90
2022-08-27T08:04:51.364Z,3.47
2022-08-27T08:07:21.921Z,3.63
2022-08-27T08:09:50.576Z,3.65
2022-08-27T08:12:26.291Z,3.50
2022-08-27T08:14:58.130Z,3.10
2022-08-27T08:17:26.891Z,4.28
2022-08-27T08:20:18.435Z,4.13
2022-08-27T08:22:48.941Z,3.40
2022-08-27T08:25:18.411Z,4.32
2022-08-27T08:27:48.185Z,3.58
2022-08-27T08:30:17.078Z,4.10
2022-08-27T08:32:45.736Z,3.90
2022-08-27T08:35:15.676Z,4.10
2022-08-27T08:37:45.338Z,3.95
2022-08-27T08:40:32.055Z,4.00
2022-08-27T08:43:03.519Z,5.03
2022-08-27T08:45:37.144Z,4.30
2022-08-27T08:48:12.485Z,4.78
2022-08-27T08:50:55.095Z,4.38
2022-08-27T08:53:42.211Z,4.78
2022-08-27T08:56:21.333Z,4.30
2022-08-27T08:58:57.353Z,4.38
2022-08-27T09:01:28.870Z,4.13
2022-08-27T09:04:03.661Z,4.05
2022-08-27T09:06:42.276Z,4.20
2022-08-27T09:09:22.487Z,3.92
2022-08-27T09:12:01.243Z,3.88
2022-08-27T09:14:39.882Z,3.50
2022-08-27T09:17:11.411Z,3.53
2022-08-27T09:19:40.487Z,3.90
2022-08-27T09:22:24.233Z,3.60
2022-08-27T09:25:05.773Z,3.30
2022-08-27T09:27:37.157Z,3.92
2022-08-27T09:30:13.152Z,4.15
2022-08-27T09:32:42.291Z,4.07
2022-08-27T09:35:13.749Z,3.85
2022-08-27T09:37:46.819Z,4.10
2022-08-27T09:40:32.452Z,4.50
2022-08-27T09:43:22.078Z,3.35
2022-08-27T09:45:55.438Z,4.03
2022-08-27T09:48:28.882Z,4.20
2022-08-27T09:51:01.966Z,3.70
2022-08-27T09:53:38.217Z,3.45
2022-08-27T09:56:11.087Z,3.53
2022-08-27T09:58:54.758Z,3.30
2022-08-27T10:01:27.935Z,3.08
2022-08-27T10:04:08.606Z,3.92
2022-08-27T10:06:37.748Z,3.35
2022-08-27T10:09:14.693Z,2.88
2022-08-27T10:11:51.895Z,3.85
2022-08-27T10:14:34.360Z,3.75
2022-08-27T10:17:21.762Z,3.20
2022-08-27T10:20:08.870Z,3.40
2022-08-27T10:22:55.511Z,4.00
2022-08-27T10:25:40.865Z,3.88
2022-08-27T10:28:27.295Z,3.25
2022-08-27T10:31:14.727Z,3.88
2022-08-27T10:34:03.517Z,2.92
2022-08-27T10:36:49.195Z,3.38
2022-08-27T10:39:29.423Z,4.05
2022-08-27T10:42:14.020Z,4.10
2022-08-27T10:45:05.012Z,3.63
2022-08-27T10:47:59.251Z,3.28
2022-08-27T10:50:38.731Z,3.15
2022-08-27T10:53:17.570Z,3.85
2022-08-27T10:55:55.913Z,3.50
2022-08-27T10:58:42.021Z,3.53
2022-08-27T11:01:20.842Z,3.92
2022-08-27T11:03:58.510Z,4.22
2022-08-27T11:06:33.619Z,3.70
2022-08-27T11:09:08.286Z,3.60
2022-08-27T11:14:38.581Z,3.88
2022-08-27T11:17:19.820Z,3.42
2022-08-27T11:20:00.386Z,4.13
2022-08-27T11:22:38.484Z,3.72
2022-08-27T11:25:31.961Z,3.60
2022-08-27T11:28:02.686Z,4.30
2022-08-27T11:30:47.233Z,4.15
2022-08-27T11:33:25.865Z,3.70
2022-08-27T11:36:31.779Z,4.13
2022-08-27T11:39:06.421Z,3.88
2022-08-27T11:42:01.702Z,4.00
2022-08-27T11:44:30.969Z,3.80
2022-08-27T11:47:15.594Z,3.88
2022-08-27T11:49:51.342Z,3.85
2022-08-27T11:52:30.100Z,4.32
2022-08-27T11:55:15.330Z,4.40
2022-08-27T11:57:45.522Z,4.40
2022-08-27T12:00:23.442Z,4.40
2022-08-27T12:03:01.047Z,4.25
2022-08-27T12:05:40.745Z,4.20
2022-08-27T12:08:29.119Z,3.47
2022-08-27T12:11:37.074Z,4.03
2022-08-27T12:14:24.247Z,4.45
2022-08-27T12:17:03.091Z,3.90
2022-08-27T12:19:52.524Z,4.07
2022-08-27T12:23:11.623Z,3.67
2022-08-27T12:25:41.730Z,4.25
2022-08-27T12:28:11.442Z,4.20
2022-08-27T12:30:49.297Z,4.18
2022-08-27T12:33:33.104Z,4.25
2022-08-27T12:36:14.798Z,4.75
2022-08-27T12:38:53.176Z,4.80
2022-08-27T12:41:44.426Z,4.40
2022-08-27T12:44:16.748Z,4.40
2022-08-27T12:46:50.780Z,4.50
2022-08-27T12:49:38.034Z,5.03
2022-08-27T12:52:26.584Z,4.72
2022-08-27T12:55:14.672Z,5.88
2022-08-27T12:58:00.501Z,4.68
2022-08-27T13:00:39.696Z,4.50
2022-08-27T13:03:24.290Z,4.63
2022-08-27T13:05:56.914Z,4.80
2022-08-27T13:08:30.369Z,3.78
2022-08-27T13:11:13.178Z,4.50
2022-08-27T13:13:44.928Z,4.40
2022-08-27T13:16:13.775Z,4.20
2022-08-27T13:18:42.664Z,4.82
2022-08-27T13:21:20.680Z,4.47
2022-08-27T13:23:58.886Z,4.20
2022-08-27T13:26:34.127Z,3.83
2022-08-27T13:29:07.636Z,4.20
2022-08-27T13:31:37.253Z,3.88
2022-08-27T13:34:07.215Z,4.30
2022-08-27T13:36:57.656Z,4.40
2022-08-27T13:39:27.361Z,4.38
2022-08-27T13:41:59.391Z,4.40
2022-08-27T13:44:36.106Z,4.20
2022-08-27T13:47:09.020Z,3.88
2022-08-27T13:49:40.530Z,4.05
2022-08-27T13:52:26.274Z,3.72
2022-08-27T13:55:05.911Z,4.50
2022-08-27T13:57:44.207Z,5.10
2022-08-27T14:00:21.068Z,3.67
2022-08-27T14:02:55.897Z,4.40
2022-08-27T14:05:32.019Z,4.03
2022-08-27T14:08:11.425Z,4.20
2022-08-27T14:10:45.103Z,4.22
2022-08-27T14:13:24.844Z,4.25
2022-08-27T14:15:57.762Z,3.97
2022-08-27T14:18:55.122Z,4.90
2022-08-27T14:21:19.292Z,3.67
2022-08-27T14:23:48.060Z,3.88
2022-08-27T14:26:17.679Z,4.70
2022-08-27T14:28:46.735Z,4.45
2022-08-27T14:31:17.234Z,4.20
2022-08-27T14:33:46.541Z,4.03
2022-08-27T14:36:16.329Z,4.50
2022-08-27T14:38:49.125Z,4.43
2022-08-27T14:41:18.869Z,4.18
2022-08-27T14:43:50.700Z,4.35
2022-08-27T14:46:27.748Z,4.50
2022-08-27T14:48:59.827Z,3.72
2022-08-27T14:51:31.706Z,4.68
2022-08-27T14:54:02.632Z,5.90
2022-08-27T14:56:32.857Z,3.90
2022-08-27T14:59:02.005Z,5.25
2022-08-27T15:01:37.449Z,4.40
2022-08-27T15:04:15.685Z,5.03
2022-08-27T15:06:55.104Z,4.25
2022-08-27T15:09:26.471Z,4.18
2022-08-27T15:11:59.412Z,4.30
2022-08-27T15:14:32.721Z,3.65
2022-08-27T15:17:20.055Z,4.50
2022-08-27T15:19:52.379Z,4.40
2022-08-27T15:22:24.234Z,4.28
2022-08-27T15:24:57.405Z,3.80
2022-08-27T15:27:32.100Z,4.18
2022-08-27T15:30:10.819Z,4.32
2022-08-27T15:32:44.285Z,4.57
2022-08-27T15:35:17.333Z,3.88
2022-08-27T15:37:46.967Z,4.45
2022-08-27T15:40:18.703Z,5.50
2022-08-27T15:42:50.410Z,4.22
2022-08-27T15:45:27.606Z,4.32
2022-08-27T15:47:58.796Z,4.10
2022-08-27T15:50:30.413Z,4.53
2022-08-27T15:53:06.239Z,6.85
2022-08-27T15:55:38.715Z,3.85
2022-08-27T15:58:08.880Z,4.20
2022-08-27T16:00:39.670Z,8.23
2022-08-27T16:03:14.271Z,5.45
2022-08-27T16:05:47.340Z,4.30
2022-08-27T16:08:16.164Z,4.53
2022-08-27T16:10:44.865Z,4.65
2022-08-27T16:13:13.658Z,5.00
2022-08-27T16:15:43.696Z,4.65
2022-08-27T16:18:14.234Z,4.30
2022-08-27T16:20:43.501Z,5.00
2022-08-27T16:23:13.891Z,4.35
2022-08-27T16:25:42.474Z,5.65
2022-08-27T16:28:12.615Z,4.53
2022-08-27T16:30:41.992Z,4.63
2022-08-27T16:33:12.264Z,4.10
2022-08-27T16:35:42.843Z,4.03
2022-08-27T16:38:12.328Z,4.80
2022-08-27T16:40:45.401Z,4.47
2022-08-27T16:43:21.112Z,4.80
2022-08-27T16:45:51.897Z,5.28
2022-08-27T16:48:38.328Z,4.75
2022-08-27T16:51:14.319Z,5.15
2022-08-27T16:53:45.124Z,5.03
2022-08-27T16:56:13.982Z,4.60
2022-08-27T16:58:42.661Z,4.63
2022-08-27T17:01:14.458Z,4.25
2022-08-27T17:04:07.428Z,4.70
2022-08-27T17:06:37.950Z,4.47
2022-08-27T17:09:10.417Z,4.38
2022-08-27T17:11:42.753Z,4.30
2022-08-27T17:14:12.894Z,4.53
2022-08-27T17:16:43.422Z,4.97
2022-08-27T17:19:16.805Z,5.78
2022-08-27T17:21:47.618Z,4.53
2022-08-27T17:24:16.427Z,5.50
2022-08-27T17:26:45.114Z,5.50
2022-08-27T17:29:13.787Z,5.13
2022-08-27T17:31:44.761Z,5.00
2022-08-27T17:34:18.807Z,5.20
2022-08-27T17:36:49.088Z,4.53
2022-08-27T17:39:18.242Z,7.70
2022-08-27T17:41:50.190Z,6.35
2022-08-27T17:44:25.313Z,10.85
2022-08-27T17:46:57.528Z,5.57
2022-08-27T17:49:27.239Z,4.95
2022-08-27T17:52:01.502Z,4.75
2022-08-27T17:54:36.089Z,4.72
2022-08-27T17:57:13.578Z,4.78
2022-08-27T17:59:42.241Z,5.35
2022-08-27T18:02:12.712Z,5.38
2022-08-27T18:04:41.615Z,5.60
2022-08-27T18:07:11.752Z,6.25
2022-08-27T18:09:40.872Z,5.72
2022-08-27T18:12:10.642Z,5.80
2022-08-27T18:14:39.285Z,5.63
2022-08-27T18:17:08.158Z,5.07
2022-08-27T18:19:37.767Z,4.95
2022-08-27T18:22:07.421Z,5.18
2022-08-27T18:24:37.470Z,5.30
2022-08-27T18:27:07.141Z,4.70
2022-08-27T18:29:35.982Z,5.10
2022-08-27T18:32:05.952Z,5.00
2022-08-27T18:34:34.605Z,5.47
2022-08-27T18:37:03.186Z,5.80
2022-08-27T18:39:32.636Z,5.30
2022-08-27T18:42:05.176Z,5.25
2022-08-27T18:44:38.985Z,5.28
2022-08-27T18:47:07.927Z,5.15
2022-08-27T18:49:36.710Z,5.30
2022-08-27T18:52:08.790Z,5.07
2022-08-27T18:54:38.325Z,5.10
2022-08-27T18:57:08.520Z,5.60
2022-08-27T18:59:37.080Z,5.05
2022-08-27T19:02:06.419Z,4.55
2022-08-27T19:04:35.645Z,5.00
2022-08-27T19:07:04.350Z,5.50
2022-08-27T19:09:32.990Z,5.88
2022-08-27T19:12:01.673Z,5.30
2022-08-27T19:14:32.240Z,5.93
2022-08-27T19:17:03.921Z,5.30
2022-08-27T19:19:32.746Z,5.82
2022-08-27T19:22:06.738Z,5.55
2022-08-27T19:24:36.893Z,5.85
2022-08-27T19:27:09.332Z,5.50
2022-08-27T19:29:39.408Z,5.05
2022-08-27T19:32:08.235Z,5.30
2022-08-27T19:34:37.092Z,5.35
2022-08-27T19:37:08.105Z,5.53
2022-08-27T19:39:38.585Z,5.00
2022-08-27T19:42:07.783Z,5.47
2022-08-27T19:44:38.196Z,5.07
2022-08-27T19:47:10.204Z,5.55
2022-08-27T19:49:40.309Z,5.30
2022-08-27T19:52:08.990Z,6.40
2022-08-27T19:54:51.719Z,6.03
2022-08-27T19:57:26.233Z,5.88
2022-08-27T19:59:56.260Z,6.63
2022-08-27T20:02:25.005Z,5.53
2022-08-27T20:05:16.333Z,5.43
2022-08-27T20:07:42.502Z,5.60
2022-08-27T20:10:11.701Z,5.13
2022-08-27T20:12:40.334Z,5.50
2022-08-27T20:15:11.517Z,6.32
2022-08-27T20:17:41.696Z,6.90
2022-08-27T20:20:11.649Z,5.40
2022-08-27T20:22:41.495Z,5.45
2022-08-27T20:25:11.110Z,5.38
2022-08-27T20:27:40.237Z,5.47
2022-08-27T20:30:15.038Z,5.47
2022-08-27T20:32:43.829Z,5.38
2022-08-27T20:35:13.065Z,5.57
2022-08-27T20:37:42.643Z,7.10
2022-08-27T20:40:15.592Z,8.70
2022-08-27T20:42:44.477Z,7.13
2022-08-27T20:45:16.558Z,7.93
2022-08-27T20:47:48.722Z,8.70
2022-08-27T20:50:18.964Z,5.45
2022-08-27T20:52:47.892Z,5.63
2022-08-27T20:55:18.525Z,6.03
2022-08-27T20:58:05.965Z,5.90
2022-08-27T21:00:40.691Z,5.28
2022-08-27T21:03:10.664Z,5.53
2022-08-27T21:05:41.486Z,5.20
2022-08-27T21:08:10.998Z,5.40
2022-08-27T21:10:46.991Z,4.97
2022-08-27T21:13:17.348Z,5.90
2022-08-27T21:15:47.626Z,5.47
2022-08-27T21:18:16.260Z,5.25
2022-08-27T21:20:44.935Z,5.47
2022-08-27T21:23:13.789Z,5.43
2022-08-27T21:25:42.733Z,5.97
2022-08-27T21:28:11.542Z,5.90
2022-08-27T21:30:40.416Z,6.25
2022-08-27T21:33:10.464Z,6.85
2022-08-27T21:35:39.401Z,6.13
2022-08-27T21:38:08.070Z,6.38
2022-08-27T21:40:37.213Z,5.75
2022-08-27T21:43:06.063Z,5.90
2022-08-27T21:45:34.822Z,9.02
2022-08-27T21:48:04.199Z,4.60
2022-08-27T21:50:34.247Z,5.30
2022-08-27T21:53:02.900Z,5.13
2022-08-27T21:55:31.637Z,4.18
2022-08-27T21:58:00.405Z,4.15
2022-08-27T22:00:43.813Z,4.28
2022-08-27T22:03:16.435Z,4.25
2022-08-27T22:05:47.972Z,4.30
2022-08-27T22:08:19.868Z,4.20
2022-08-27T22:10:53.752Z,4.18
2022-08-27T22:13:23.468Z,4.53
2022-08-27T22:15:52.113Z,3.75
2022-08-27T22:18:23.089Z,3.30
2022-08-27T22:20:54.858Z,3.17
2022-08-27T22:23:23.780Z,3.20
2022-08-27T22:25:52.585Z,3.08
2022-08-27T22:28:21.560Z,2.58
2022-08-27T22:30:50.214Z,3.20
2022-08-27T22:33:19.353Z,2.63
2022-08-27T22:35:48.358Z,3.03
2022-08-27T22:38:18.626Z,2.88
2022-08-27T22:40:47.239Z,2.50
2022-08-27T22:43:16.398Z,2.95
2022-08-27T22:45:45.141Z,2.72
2022-08-27T22:48:14.207Z,3.20
2022-08-27T22:50:42.979Z,3.13
2022-08-27T22:53:12.123Z,3.53
2022-08-27T22:55:44.665Z,2.90
2022-08-27T22:58:15.523Z,3.15
2022-08-27T23:00:52.057Z,2.80
2022-08-27T23:03:21.574Z,2.90
2022-08-27T23:05:50.244Z,3.25
2022-08-27T23:08:19.127Z,3.78
2022-08-27T23:10:49.213Z,4.05
2022-08-27T23:13:17.831Z,4.70
2022-08-27T23:15:46.619Z,3.88
2022-08-27T23:18:15.264Z,3.42
2022-08-27T23:20:44.064Z,2.65
2022-08-27T23:23:12.822Z,2.85
2022-08-27T23:25:58.963Z,2.60
2022-08-27T23:28:29.520Z,3.10
2022-08-27T23:30:58.710Z,2.83
2022-08-27T23:33:27.507Z,2.97
2022-08-27T23:35:56.123Z,3.10
2022-08-27T23:38:24.768Z,2.80
2022-08-27T23:40:53.486Z,2.60
2022-08-27T23:43:23.133Z,2.45
2022-08-27T23:45:53.240Z,2.25
2022-08-27T23:48:22.133Z,2.60
2022-08-27T23:50:50.849Z,2.42
2022-08-27T23:53:19.437Z,2.30
2022-08-27T23:55:48.069Z,2.22
2022-08-27T23:58:16.746Z,2.75
